sensor_id;sensor_type;location;lat;lon;timestamp;temperature;humidity
74153;DHT22;62505;46.070;14.492;2022-10-04T00:02:23;21.20;83.10
74153;DHT22;62505;46.070;14.492;2022-10-04T00:04:56;21.20;83.00
74153;DHT22;62505;46.070;14.492;2022-10-04T00:07:30;21.20;83.10
74153;DHT22;62505;46.070;14.492;2022-10-04T00:10:01;21.20;83.10
74153;DHT22;62505;46.070;14.492;2022-10-04T00:12:32;21.20;83.20
74153;DHT22;62505;46.070;14.492;2022-10-04T00:15:05;21.20;83.20
74153;DHT22;62505;46.070;14.492;2022-10-04T00:17:33;21.20;83.20
74153;DHT22;62505;46.070;14.492;2022-10-04T00:20:53;21.20;83.20
74153;DHT22;62505;46.070;14.492;2022-10-04T00:25:57;21.20;83.20
74153;DHT22;62505;46.070;14.492;2022-10-04T00:28:42;21.20;83.30
74153;DHT22;62505;46.070;14.492;2022-10-04T00:31:15;21.20;83.30
74153;DHT22;62505;46.070;14.492;2022-10-04T00:33:43;21.20;83.30
74153;DHT22;62505;46.070;14.492;2022-10-04T00:36:40;21.20;83.40
74153;DHT22;62505;46.070;14.492;2022-10-04T00:39:38;21.20;83.40
74153;DHT22;62505;46.070;14.492;2022-10-04T00:42:32;21.20;83.40
74153;DHT22;62505;46.070;14.492;2022-10-04T00:45:07;21.20;83.40
74153;DHT22;62505;46.070;14.492;2022-10-04T00:48:07;21.20;83.40
74153;DHT22;62505;46.070;14.492;2022-10-04T00:50:39;21.20;83.50
74153;DHT22;62505;46.070;14.492;2022-10-04T00:53:19;21.20;83.40
74153;DHT22;62505;46.070;14.492;2022-10-04T00:55:50;21.20;83.50
74153;DHT22;62505;46.070;14.492;2022-10-04T00:58:21;21.20;83.50
74153;DHT22;62505;46.070;14.492;2022-10-04T01:00:51;21.20;83.50
74153;DHT22;62505;46.070;14.492;2022-10-04T01:03:22;21.20;83.60
74153;DHT22;62505;46.070;14.492;2022-10-04T01:05:55;21.20;83.50
74153;DHT22;62505;46.070;14.492;2022-10-04T01:08:27;21.20;83.50
74153;DHT22;62505;46.070;14.492;2022-10-04T01:10:59;21.20;83.60
74153;DHT22;62505;46.070;14.492;2022-10-04T01:13:30;21.20;83.60
74153;DHT22;62505;46.070;14.492;2022-10-04T01:16:04;21.20;83.60
74153;DHT22;62505;46.070;14.492;2022-10-04T01:18:36;21.20;83.60
74153;DHT22;62505;46.070;14.492;2022-10-04T01:21:06;21.20;83.60
74153;DHT22;62505;46.070;14.492;2022-10-04T01:23:39;21.20;83.60
74153;DHT22;62505;46.070;14.492;2022-10-04T01:26:38;21.20;83.70
74153;DHT22;62505;46.070;14.492;2022-10-04T01:29:08;21.20;83.70
74153;DHT22;62505;46.070;14.492;2022-10-04T01:31:37;21.20;83.60
74153;DHT22;62505;46.070;14.492;2022-10-04T01:34:05;21.20;83.70
74153;DHT22;62505;46.070;14.492;2022-10-04T01:36:33;21.20;83.70
74153;DHT22;62505;46.070;14.492;2022-10-04T01:39:03;21.20;83.70
74153;DHT22;62505;46.070;14.492;2022-10-04T01:41:38;21.20;83.70
74153;DHT22;62505;46.070;14.492;2022-10-04T01:44:11;21.20;83.90
74153;DHT22;62505;46.070;14.492;2022-10-04T01:46:42;21.20;83.80
74153;DHT22;62505;46.070;14.492;2022-10-04T01:49:14;21.20;83.90
74153;DHT22;62505;46.070;14.492;2022-10-04T01:51:46;21.20;83.90
74153;DHT22;62505;46.070;14.492;2022-10-04T01:54:18;21.20;83.90
74153;DHT22;62505;46.070;14.492;2022-10-04T01:56:48;21.20;83.90
74153;DHT22;62505;46.070;14.492;2022-10-04T01:59:20;21.20;83.90
74153;DHT22;62505;46.070;14.492;2022-10-04T02:01:51;21.20;83.90
74153;DHT22;62505;46.070;14.492;2022-10-04T02:04:22;21.20;83.90
74153;DHT22;62505;46.070;14.492;2022-10-04T02:06:51;21.20;83.90
74153;DHT22;62505;46.070;14.492;2022-10-04T02:09:24;21.20;83.90
74153;DHT22;62505;46.070;14.492;2022-10-04T02:11:53;21.20;83.90
74153;DHT22;62505;46.070;14.492;2022-10-04T02:14:23;21.20;84.00
74153;DHT22;62505;46.070;14.492;2022-10-04T02:16:51;21.20;84.00
74153;DHT22;62505;46.070;14.492;2022-10-04T02:19:20;21.20;83.90
74153;DHT22;62505;46.070;14.492;2022-10-04T02:21:49;21.20;83.90
74153;DHT22;62505;46.070;14.492;2022-10-04T02:24:16;21.20;84.00
74153;DHT22;62505;46.070;14.492;2022-10-04T02:26:49;21.20;84.00
74153;DHT22;62505;46.070;14.492;2022-10-04T02:29:18;21.20;84.00
74153;DHT22;62505;46.070;14.492;2022-10-04T02:31:45;21.20;84.00
74153;DHT22;62505;46.070;14.492;2022-10-04T02:34:31;21.20;84.10
74153;DHT22;62505;46.070;14.492;2022-10-04T02:37:00;21.20;84.10
74153;DHT22;62505;46.070;14.492;2022-10-04T02:39:31;21.20;84.00
74153;DHT22;62505;46.070;14.492;2022-10-04T02:42:03;21.20;84.10
74153;DHT22;62505;46.070;14.492;2022-10-04T02:44:40;21.20;84.10
74153;DHT22;62505;46.070;14.492;2022-10-04T02:47:12;21.20;84.10
74153;DHT22;62505;46.070;14.492;2022-10-04T02:49:44;21.20;84.10
74153;DHT22;62505;46.070;14.492;2022-10-04T02:52:14;21.20;84.10
74153;DHT22;62505;46.070;14.492;2022-10-04T02:54:44;21.20;84.20
74153;DHT22;62505;46.070;14.492;2022-10-04T02:57:17;21.20;84.20
74153;DHT22;62505;46.070;14.492;2022-10-04T02:59:45;21.20;84.20
74153;DHT22;62505;46.070;14.492;2022-10-04T03:02:24;21.20;84.20
74153;DHT22;62505;46.070;14.492;2022-10-04T03:04:53;21.20;84.30
74153;DHT22;62505;46.070;14.492;2022-10-04T03:07:21;21.20;84.20
74153;DHT22;62505;46.070;14.492;2022-10-04T03:09:49;21.20;84.20
74153;DHT22;62505;46.070;14.492;2022-10-04T03:12:18;21.20;84.20
74153;DHT22;62505;46.070;14.492;2022-10-04T03:14:46;21.20;84.20
74153;DHT22;62505;46.070;14.492;2022-10-04T03:17:15;21.20;84.20
74153;DHT22;62505;46.070;14.492;2022-10-04T03:19:43;21.20;84.30
74153;DHT22;62505;46.070;14.492;2022-10-04T03:22:13;21.20;84.30
74153;DHT22;62505;46.070;14.492;2022-10-04T03:24:45;21.20;84.20
74153;DHT22;62505;46.070;14.492;2022-10-04T03:27:15;21.20;84.30
74153;DHT22;62505;46.070;14.492;2022-10-04T03:29:45;21.20;84.30
74153;DHT22;62505;46.070;14.492;2022-10-04T03:32:13;21.20;84.30
74153;DHT22;62505;46.070;14.492;2022-10-04T03:34:43;21.20;84.30
74153;DHT22;62505;46.070;14.492;2022-10-04T03:37:15;21.20;84.30
74153;DHT22;62505;46.070;14.492;2022-10-04T03:39:45;21.20;84.30
74153;DHT22;62505;46.070;14.492;2022-10-04T03:42:15;21.20;84.40
74153;DHT22;62505;46.070;14.492;2022-10-04T03:44:45;21.20;84.40
74153;DHT22;62505;46.070;14.492;2022-10-04T03:47:15;21.20;84.30
74153;DHT22;62505;46.070;14.492;2022-10-04T03:49:43;21.20;84.40
74153;DHT22;62505;46.070;14.492;2022-10-04T03:52:17;21.20;84.40
74153;DHT22;62505;46.070;14.492;2022-10-04T03:54:48;21.20;84.50
74153;DHT22;62505;46.070;14.492;2022-10-04T03:57:17;21.20;85.20
74153;DHT22;62505;46.070;14.492;2022-10-04T03:59:46;21.20;84.40
74153;DHT22;62505;46.070;14.492;2022-10-04T04:02:18;21.20;84.30
74153;DHT22;62505;46.070;14.492;2022-10-04T04:04:54;21.20;84.50
74153;DHT22;62505;46.070;14.492;2022-10-04T04:07:26;21.20;84.40
74153;DHT22;62505;46.070;14.492;2022-10-04T04:10:00;21.20;84.50
74153;DHT22;62505;46.070;14.492;2022-10-04T04:12:36;21.20;84.50
74153;DHT22;62505;46.070;14.492;2022-10-04T04:15:09;21.20;84.50
74153;DHT22;62505;46.070;14.492;2022-10-04T04:17:40;21.20;84.50
74153;DHT22;62505;46.070;14.492;2022-10-04T04:20:21;21.20;84.50
74153;DHT22;62505;46.070;14.492;2022-10-04T04:22:58;21.20;84.50
74153;DHT22;62505;46.070;14.492;2022-10-04T04:25:28;21.20;84.50
74153;DHT22;62505;46.070;14.492;2022-10-04T04:28:02;21.20;84.50
74153;DHT22;62505;46.070;14.492;2022-10-04T04:30:33;21.20;84.50
74153;DHT22;62505;46.070;14.492;2022-10-04T04:33:08;21.20;84.50
74153;DHT22;62505;46.070;14.492;2022-10-04T04:35:35;21.20;84.60
74153;DHT22;62505;46.070;14.492;2022-10-04T04:38:12;21.20;84.50
74153;DHT22;62505;46.070;14.492;2022-10-04T04:40:40;21.20;84.60
74153;DHT22;62505;46.070;14.492;2022-10-04T04:43:13;21.20;84.70
74153;DHT22;62505;46.070;14.492;2022-10-04T04:45:44;21.20;84.60
74153;DHT22;62505;46.070;14.492;2022-10-04T04:48:15;21.20;84.60
74153;DHT22;62505;46.070;14.492;2022-10-04T04:50:51;21.20;84.60
74153;DHT22;62505;46.070;14.492;2022-10-04T04:53:22;21.20;84.60
74153;DHT22;62505;46.070;14.492;2022-10-04T04:55:54;21.20;84.60
74153;DHT22;62505;46.070;14.492;2022-10-04T04:58:25;21.20;84.60
74153;DHT22;62505;46.070;14.492;2022-10-04T05:00:56;21.20;84.60
74153;DHT22;62505;46.070;14.492;2022-10-04T05:03:24;21.20;85.00
74153;DHT22;62505;46.070;14.492;2022-10-04T05:05:52;21.20;84.60
74153;DHT22;62505;46.070;14.492;2022-10-04T05:08:21;21.20;84.70
74153;DHT22;62505;46.070;14.492;2022-10-04T05:10:51;21.20;84.70
74153;DHT22;62505;46.070;14.492;2022-10-04T05:13:29;21.20;84.70
74153;DHT22;62505;46.070;14.492;2022-10-04T05:15:59;21.20;84.70
74153;DHT22;62505;46.070;14.492;2022-10-04T05:18:29;21.20;84.60
74153;DHT22;62505;46.070;14.492;2022-10-04T05:21:03;21.20;84.70
74153;DHT22;62505;46.070;14.492;2022-10-04T05:23:32;21.20;84.70
74153;DHT22;62505;46.070;14.492;2022-10-04T05:26:00;21.20;84.70
74153;DHT22;62505;46.070;14.492;2022-10-04T05:28:29;21.20;84.70
74153;DHT22;62505;46.070;14.492;2022-10-04T05:31:10;21.20;84.70
74153;DHT22;62505;46.070;14.492;2022-10-04T05:33:45;21.20;84.80
74153;DHT22;62505;46.070;14.492;2022-10-04T05:36:36;21.20;84.70
74153;DHT22;62505;46.070;14.492;2022-10-04T05:39:13;21.20;85.40
74153;DHT22;62505;46.070;14.492;2022-10-04T05:41:46;21.20;86.00
74153;DHT22;62505;46.070;14.492;2022-10-04T05:44:22;21.20;87.60
74153;DHT22;62505;46.070;14.492;2022-10-04T05:46:54;21.30;91.20
74153;DHT22;62505;46.070;14.492;2022-10-04T05:49:22;21.40;92.00
74153;DHT22;62505;46.070;14.492;2022-10-04T05:51:53;21.50;90.90
74153;DHT22;62505;46.070;14.492;2022-10-04T05:54:23;21.50;90.50
74153;DHT22;62505;46.070;14.492;2022-10-04T05:57:17;21.60;90.00
74153;DHT22;62505;46.070;14.492;2022-10-04T06:00:03;21.70;88.90
74153;DHT22;62505;46.070;14.492;2022-10-04T06:02:52;21.80;87.90
74153;DHT22;62505;46.070;14.492;2022-10-04T06:05:27;21.80;87.30
74153;DHT22;62505;46.070;14.492;2022-10-04T06:07:59;21.80;86.60
74153;DHT22;62505;46.070;14.492;2022-10-04T06:16:23;21.90;86.20
74153;DHT22;62505;46.070;14.492;2022-10-04T06:22:13;21.80;86.00
74153;DHT22;62505;46.070;14.492;2022-10-04T06:24:43;21.80;86.30
74153;DHT22;62505;46.070;14.492;2022-10-04T06:27:16;21.80;86.40
74153;DHT22;62505;46.070;14.492;2022-10-04T06:29:48;21.80;86.70
74153;DHT22;62505;46.070;14.492;2022-10-04T06:32:48;21.80;86.90
74153;DHT22;62505;46.070;14.492;2022-10-04T06:35:39;21.70;87.10
74153;DHT22;62505;46.070;14.492;2022-10-04T06:38:25;21.80;87.30
74153;DHT22;62505;46.070;14.492;2022-10-04T06:47:22;21.70;88.50
74153;DHT22;62505;46.070;14.492;2022-10-04T06:49:55;21.80;90.10
74153;DHT22;62505;46.070;14.492;2022-10-04T06:52:35;21.70;89.80
74153;DHT22;62505;46.070;14.492;2022-10-04T07:01:31;21.70;89.20
74153;DHT22;62505;46.070;14.492;2022-10-04T07:04:05;21.70;89.20
74153;DHT22;62505;46.070;14.492;2022-10-04T07:06:45;21.70;89.20
74153;DHT22;62505;46.070;14.492;2022-10-04T07:09:19;21.70;89.20
74153;DHT22;62505;46.070;14.492;2022-10-04T07:11:52;21.70;89.50
74153;DHT22;62505;46.070;14.492;2022-10-04T07:14:26;21.70;89.50
74153;DHT22;62505;46.070;14.492;2022-10-04T07:16:57;21.70;89.60
74153;DHT22;62505;46.070;14.492;2022-10-04T07:19:32;21.70;89.50
74153;DHT22;62505;46.070;14.492;2022-10-04T07:22:08;21.70;89.50
74153;DHT22;62505;46.070;14.492;2022-10-04T07:25:11;21.70;89.40
74153;DHT22;62505;46.070;14.492;2022-10-04T07:27:48;21.70;90.00
74153;DHT22;62505;46.070;14.492;2022-10-04T07:30:44;21.70;90.20
74153;DHT22;62505;46.070;14.492;2022-10-04T07:33:15;21.70;90.10
74153;DHT22;62505;46.070;14.492;2022-10-04T07:35:46;21.70;90.60
74153;DHT22;62505;46.070;14.492;2022-10-04T07:38:18;21.80;90.20
74153;DHT22;62505;46.070;14.492;2022-10-04T07:41:01;21.80;90.10
74153;DHT22;62505;46.070;14.492;2022-10-04T07:43:31;21.80;89.80
74153;DHT22;62505;46.070;14.492;2022-10-04T07:46:12;21.80;89.40
74153;DHT22;62505;46.070;14.492;2022-10-04T07:48:40;22.00;88.70
74153;DHT22;62505;46.070;14.492;2022-10-04T07:51:18;22.00;88.10
74153;DHT22;62505;46.070;14.492;2022-10-04T07:53:53;22.10;87.60
74153;DHT22;62505;46.070;14.492;2022-10-04T07:56:26;22.20;87.10
74153;DHT22;62505;46.070;14.492;2022-10-04T07:59:03;22.20;87.60
74153;DHT22;62505;46.070;14.492;2022-10-04T08:01:41;22.20;87.10
74153;DHT22;62505;46.070;14.492;2022-10-04T08:04:16;22.20;86.60
74153;DHT22;62505;46.070;14.492;2022-10-04T08:06:56;22.30;86.40
74153;DHT22;62505;46.070;14.492;2022-10-04T08:09:39;22.30;86.10
74153;DHT22;62505;46.070;14.492;2022-10-04T08:12:15;22.30;86.20
74153;DHT22;62505;46.070;14.492;2022-10-04T08:14:53;22.40;86.10
74153;DHT22;62505;46.070;14.492;2022-10-04T08:17:36;22.40;85.80
74153;DHT22;62505;46.070;14.492;2022-10-04T08:20:20;22.40;85.60
74153;DHT22;62505;46.070;14.492;2022-10-04T08:23:00;22.40;85.40
74153;DHT22;62505;46.070;14.492;2022-10-04T08:25:36;22.40;85.30
74153;DHT22;62505;46.070;14.492;2022-10-04T08:28:16;22.40;85.30
74153;DHT22;62505;46.070;14.492;2022-10-04T08:31:13;22.40;85.20
74153;DHT22;62505;46.070;14.492;2022-10-04T08:33:56;22.40;85.10
74153;DHT22;62505;46.070;14.492;2022-10-04T08:36:37;22.40;84.90
74153;DHT22;62505;46.070;14.492;2022-10-04T08:39:18;22.40;84.80
74153;DHT22;62505;46.070;14.492;2022-10-04T08:45:36;22.40;85.20
74153;DHT22;62505;46.070;14.492;2022-10-04T08:48:54;22.40;85.40
74153;DHT22;62505;46.070;14.492;2022-10-04T08:51:49;22.40;85.40
74153;DHT22;62505;46.070;14.492;2022-10-04T08:54:48;22.40;85.60
74153;DHT22;62505;46.070;14.492;2022-10-04T09:00:30;22.30;85.80
74153;DHT22;62505;46.070;14.492;2022-10-04T09:06:23;22.40;86.80
74153;DHT22;62505;46.070;14.492;2022-10-04T09:12:13;22.40;90.20
74153;DHT22;62505;46.070;14.492;2022-10-04T09:15:05;22.50;90.60
74153;DHT22;62505;46.070;14.492;2022-10-04T09:17:41;22.40;90.80
74153;DHT22;62505;46.070;14.492;2022-10-04T09:20:20;22.40;91.70
74153;DHT22;62505;46.070;14.492;2022-10-04T09:22:54;22.40;92.40
74153;DHT22;62505;46.070;14.492;2022-10-04T09:25:45;22.40;93.30
74153;DHT22;62505;46.070;14.492;2022-10-04T09:28:46;22.40;94.80
74153;DHT22;62505;46.070;14.492;2022-10-04T09:31:28;22.40;95.40
74153;DHT22;62505;46.070;14.492;2022-10-04T09:34:12;22.40;95.60
74153;DHT22;62505;46.070;14.492;2022-10-04T09:37:03;22.40;96.90
74153;DHT22;62505;46.070;14.492;2022-10-04T09:39:51;22.40;97.30
74153;DHT22;62505;46.070;14.492;2022-10-04T09:45:36;22.40;98.20
74153;DHT22;62505;46.070;14.492;2022-10-04T09:48:25;22.40;97.70
74153;DHT22;62505;46.070;14.492;2022-10-04T09:51:20;22.40;97.30
74153;DHT22;62505;46.070;14.492;2022-10-04T09:54:16;22.40;96.10
74153;DHT22;62505;46.070;14.492;2022-10-04T09:57:06;22.50;95.60
74153;DHT22;62505;46.070;14.492;2022-10-04T09:59:50;22.60;95.30
74153;DHT22;62505;46.070;14.492;2022-10-04T10:02:37;22.40;92.50
74153;DHT22;62505;46.070;14.492;2022-10-04T10:05:30;22.30;88.10
74153;DHT22;62505;46.070;14.492;2022-10-04T10:08:14;22.20;81.60
74153;DHT22;62505;46.070;14.492;2022-10-04T10:10:51;22.10;82.20
74153;DHT22;62505;46.070;14.492;2022-10-04T10:14:00;22.20;80.90
74153;DHT22;62505;46.070;14.492;2022-10-04T10:16:37;22.20;81.40
74153;DHT22;62505;46.070;14.492;2022-10-04T10:19:29;22.30;81.80
74153;DHT22;62505;46.070;14.492;2022-10-04T10:25:12;22.40;81.80
74153;DHT22;62505;46.070;14.492;2022-10-04T10:27:54;22.40;82.00
74153;DHT22;62505;46.070;14.492;2022-10-04T10:30:33;22.40;82.20
74153;DHT22;62505;46.070;14.492;2022-10-04T10:33:26;22.40;82.30
74153;DHT22;62505;46.070;14.492;2022-10-04T10:36:25;22.40;82.30
74153;DHT22;62505;46.070;14.492;2022-10-04T10:39:18;22.50;82.60
74153;DHT22;62505;46.070;14.492;2022-10-04T10:41:58;22.40;82.90
74153;DHT22;62505;46.070;14.492;2022-10-04T10:44:52;22.50;83.10
74153;DHT22;62505;46.070;14.492;2022-10-04T10:47:32;22.50;83.30
74153;DHT22;62505;46.070;14.492;2022-10-04T10:50:21;22.50;83.40
74153;DHT22;62505;46.070;14.492;2022-10-04T10:53:18;22.50;83.70
74153;DHT22;62505;46.070;14.492;2022-10-04T10:59:33;22.50;84.00
74153;DHT22;62505;46.070;14.492;2022-10-04T11:02:23;22.50;84.30
74153;DHT22;62505;46.070;14.492;2022-10-04T11:05:08;22.50;84.70
74153;DHT22;62505;46.070;14.492;2022-10-04T11:07:52;22.50;85.00
74153;DHT22;62505;46.070;14.492;2022-10-04T11:10:55;22.50;85.20
74153;DHT22;62505;46.070;14.492;2022-10-04T11:13:55;22.40;85.70
74153;DHT22;62505;46.070;14.492;2022-10-04T11:17:00;22.40;85.90
74153;DHT22;62505;46.070;14.492;2022-10-04T11:23:17;22.40;86.50
74153;DHT22;62505;46.070;14.492;2022-10-04T11:25:58;22.40;86.60
74153;DHT22;62505;46.070;14.492;2022-10-04T11:28:38;22.40;86.50
74153;DHT22;62505;46.070;14.492;2022-10-04T11:31:37;22.30;86.30
74153;DHT22;62505;46.070;14.492;2022-10-04T11:37:14;22.40;85.90
74153;DHT22;62505;46.070;14.492;2022-10-04T11:40:13;22.40;85.70
74153;DHT22;62505;46.070;14.492;2022-10-04T11:42:59;22.40;85.40
74153;DHT22;62505;46.070;14.492;2022-10-04T11:45:40;22.50;85.30
74153;DHT22;62505;46.070;14.492;2022-10-04T11:48:16;22.50;85.20
74153;DHT22;62505;46.070;14.492;2022-10-04T11:51:14;22.50;85.10
74153;DHT22;62505;46.070;14.492;2022-10-04T11:57:04;22.50;85.20
74153;DHT22;62505;46.070;14.492;2022-10-04T11:59:45;22.50;85.20
74153;DHT22;62505;46.070;14.492;2022-10-04T12:05:45;22.40;85.40
74153;DHT22;62505;46.070;14.492;2022-10-04T12:08:36;22.40;85.60
74153;DHT22;62505;46.070;14.492;2022-10-04T12:11:27;22.40;85.70
74153;DHT22;62505;46.070;14.492;2022-10-04T12:14:24;22.40;85.80
74153;DHT22;62505;46.070;14.492;2022-10-04T12:23:01;22.40;85.50
74153;DHT22;62505;46.070;14.492;2022-10-04T12:26:00;22.40;85.40
74153;DHT22;62505;46.070;14.492;2022-10-04T12:31:27;22.40;85.20
74153;DHT22;62505;46.070;14.492;2022-10-04T12:34:01;22.50;85.20
74153;DHT22;62505;46.070;14.492;2022-10-04T12:36:40;22.50;85.10
74153;DHT22;62505;46.070;14.492;2022-10-04T12:39:33;22.50;85.00
74153;DHT22;62505;46.070;14.492;2022-10-04T12:42:20;22.50;85.00
74153;DHT22;62505;46.070;14.492;2022-10-04T12:48:01;22.50;84.90
74153;DHT22;62505;46.070;14.492;2022-10-04T12:50:47;22.50;84.80
74153;DHT22;62505;46.070;14.492;2022-10-04T12:53:22;22.50;85.20
74153;DHT22;62505;46.070;14.492;2022-10-04T12:56:11;22.50;88.40
74153;DHT22;62505;46.070;14.492;2022-10-04T12:59:00;22.50;87.30
74153;DHT22;62505;46.070;14.492;2022-10-04T13:01:37;22.50;85.40
74153;DHT22;62505;46.070;14.492;2022-10-04T13:04:17;22.50;85.60
74153;DHT22;62505;46.070;14.492;2022-10-04T13:07:07;22.50;85.70
74153;DHT22;62505;46.070;14.492;2022-10-04T13:09:47;22.50;85.70
74153;DHT22;62505;46.070;14.492;2022-10-04T13:12:30;22.40;85.70
74153;DHT22;62505;46.070;14.492;2022-10-04T13:15:21;22.50;85.80
74153;DHT22;62505;46.070;14.492;2022-10-04T13:17:57;22.40;85.70
74153;DHT22;62505;46.070;14.492;2022-10-04T13:20:39;22.40;85.70
74153;DHT22;62505;46.070;14.492;2022-10-04T13:23:15;22.40;85.70
74153;DHT22;62505;46.070;14.492;2022-10-04T13:26:07;22.40;86.30
74153;DHT22;62505;46.070;14.492;2022-10-04T13:28:47;22.40;85.20
74153;DHT22;62505;46.070;14.492;2022-10-04T13:31:23;22.40;83.70
74153;DHT22;62505;46.070;14.492;2022-10-04T13:34:02;22.40;81.20
74153;DHT22;62505;46.070;14.492;2022-10-04T13:36:47;22.40;81.00
74153;DHT22;62505;46.070;14.492;2022-10-04T13:39:34;22.40;81.10
74153;DHT22;62505;46.070;14.492;2022-10-04T13:42:15;22.50;81.50
74153;DHT22;62505;46.070;14.492;2022-10-04T13:44:54;22.50;81.90
74153;DHT22;62505;46.070;14.492;2022-10-04T13:47:36;22.60;81.90
74153;DHT22;62505;46.070;14.492;2022-10-04T13:50:29;22.60;82.20
74153;DHT22;62505;46.070;14.492;2022-10-04T13:53:18;22.60;82.50
74153;DHT22;62505;46.070;14.492;2022-10-04T13:56:17;22.60;83.10
74153;DHT22;62505;46.070;14.492;2022-10-04T13:59:09;22.60;83.10
74153;DHT22;62505;46.070;14.492;2022-10-04T14:08:20;22.50;83.20
74153;DHT22;62505;46.070;14.492;2022-10-04T14:14:17;22.50;83.40
74153;DHT22;62505;46.070;14.492;2022-10-04T14:23:00;22.40;79.60
74153;DHT22;62505;46.070;14.492;2022-10-04T14:26:06;22.40;80.00
74153;DHT22;62505;46.070;14.492;2022-10-04T14:29:19;22.40;80.40
74153;DHT22;62505;46.070;14.492;2022-10-04T14:32:15;22.40;80.60
74153;DHT22;62505;46.070;14.492;2022-10-04T14:34:54;22.40;80.90
74153;DHT22;62505;46.070;14.492;2022-10-04T14:40:57;22.40;81.50
74153;DHT22;62505;46.070;14.492;2022-10-04T14:43:58;22.50;81.80
74153;DHT22;62505;46.070;14.492;2022-10-04T14:46:43;22.50;82.00
74153;DHT22;62505;46.070;14.492;2022-10-04T14:49:20;22.50;82.10
74153;DHT22;62505;46.070;14.492;2022-10-04T14:52:02;22.50;82.50
74153;DHT22;62505;46.070;14.492;2022-10-04T14:54:41;22.50;82.60
74153;DHT22;62505;46.070;14.492;2022-10-04T14:57:16;22.50;82.80
74153;DHT22;62505;46.070;14.492;2022-10-04T14:59:59;22.50;83.70
74153;DHT22;62505;46.070;14.492;2022-10-04T15:05:41;22.50;83.20
74153;DHT22;62505;46.070;14.492;2022-10-04T15:11:11;22.50;83.40
74153;DHT22;62505;46.070;14.492;2022-10-04T15:13:49;22.50;83.50
74153;DHT22;62505;46.070;14.492;2022-10-04T15:16:30;22.50;83.60
74153;DHT22;62505;46.070;14.492;2022-10-04T15:19:03;22.50;83.70
74153;DHT22;62505;46.070;14.492;2022-10-04T15:21:45;22.50;83.80
74153;DHT22;62505;46.070;14.492;2022-10-04T15:24:26;22.50;84.10
74153;DHT22;62505;46.070;14.492;2022-10-04T15:27:24;22.50;84.20
74153;DHT22;62505;46.070;14.492;2022-10-04T15:30:00;22.50;84.10
74153;DHT22;62505;46.070;14.492;2022-10-04T15:32:34;22.60;84.30
74153;DHT22;62505;46.070;14.492;2022-10-04T15:35:15;22.60;84.60
74153;DHT22;62505;46.070;14.492;2022-10-04T15:37:51;22.60;84.50
74153;DHT22;62505;46.070;14.492;2022-10-04T15:40:36;22.60;84.60
74153;DHT22;62505;46.070;14.492;2022-10-04T15:43:23;22.50;84.10
74153;DHT22;62505;46.070;14.492;2022-10-04T15:45:59;22.50;84.10
74153;DHT22;62505;46.070;14.492;2022-10-04T15:54:59;22.50;84.10
74153;DHT22;62505;46.070;14.492;2022-10-04T15:57:34;22.40;84.10
74153;DHT22;62505;46.070;14.492;2022-10-04T16:00:06;22.40;84.70
74153;DHT22;62505;46.070;14.492;2022-10-04T16:03:11;22.50;85.00
74153;DHT22;62505;46.070;14.492;2022-10-04T16:05:45;22.40;85.10
74153;DHT22;62505;46.070;14.492;2022-10-04T16:08:35;22.40;85.30
74153;DHT22;62505;46.070;14.492;2022-10-04T16:11:49;22.50;85.50
74153;DHT22;62505;46.070;14.492;2022-10-04T16:20:49;22.40;84.90
74153;DHT22;62505;46.070;14.492;2022-10-04T16:23:29;22.40;84.80
74153;DHT22;62505;46.070;14.492;2022-10-04T16:25:57;22.40;84.80
74153;DHT22;62505;46.070;14.492;2022-10-04T16:28:54;22.40;84.80
74153;DHT22;62505;46.070;14.492;2022-10-04T16:31:41;22.40;84.80
74153;DHT22;62505;46.070;14.492;2022-10-04T16:34:27;22.40;84.70
74153;DHT22;62505;46.070;14.492;2022-10-04T16:37:02;22.40;84.80
74153;DHT22;62505;46.070;14.492;2022-10-04T16:39:48;22.30;84.80
74153;DHT22;62505;46.070;14.492;2022-10-04T16:42:33;22.40;85.60
74153;DHT22;62505;46.070;14.492;2022-10-04T16:48:29;22.40;85.10
74153;DHT22;62505;46.070;14.492;2022-10-04T16:51:22;22.40;85.10
74153;DHT22;62505;46.070;14.492;2022-10-04T16:53:56;22.30;85.00
74153;DHT22;62505;46.070;14.492;2022-10-04T16:56:26;22.30;85.00
74153;DHT22;62505;46.070;14.492;2022-10-04T16:58:56;22.30;85.00
74153;DHT22;62505;46.070;14.492;2022-10-04T17:02:01;22.30;85.00
74153;DHT22;62505;46.070;14.492;2022-10-04T17:04:54;22.30;85.10
74153;DHT22;62505;46.070;14.492;2022-10-04T17:07:41;22.30;85.10
74153;DHT22;62505;46.070;14.492;2022-10-04T17:10:30;22.30;85.10
74153;DHT22;62505;46.070;14.492;2022-10-04T17:13:06;22.30;85.10
74153;DHT22;62505;46.070;14.492;2022-10-04T17:15:45;22.30;85.10
74153;DHT22;62505;46.070;14.492;2022-10-04T17:18:18;22.30;85.20
74153;DHT22;62505;46.070;14.492;2022-10-04T17:20:55;22.20;85.10
74153;DHT22;62505;46.070;14.492;2022-10-04T17:23:48;22.30;85.30
74153;DHT22;62505;46.070;14.492;2022-10-04T17:26:35;22.20;85.20
74153;DHT22;62505;46.070;14.492;2022-10-04T17:29:23;22.20;85.30
74153;DHT22;62505;46.070;14.492;2022-10-04T17:31:56;22.20;85.30
74153;DHT22;62505;46.070;14.492;2022-10-04T17:34:34;22.20;85.20
74153;DHT22;62505;46.070;14.492;2022-10-04T17:37:15;22.20;85.30
74153;DHT22;62505;46.070;14.492;2022-10-04T17:39:48;22.20;85.40
74153;DHT22;62505;46.070;14.492;2022-10-04T17:42:30;22.20;85.30
74153;DHT22;62505;46.070;14.492;2022-10-04T17:45:25;22.20;85.30
74153;DHT22;62505;46.070;14.492;2022-10-04T17:47:59;22.20;85.30
74153;DHT22;62505;46.070;14.492;2022-10-04T17:50:52;22.20;85.40
74153;DHT22;62505;46.070;14.492;2022-10-04T17:53:41;22.20;85.40
74153;DHT22;62505;46.070;14.492;2022-10-04T17:56:37;22.20;85.40
74153;DHT22;62505;46.070;14.492;2022-10-04T17:59:09;22.20;85.40
74153;DHT22;62505;46.070;14.492;2022-10-04T18:01:41;22.20;85.40
74153;DHT22;62505;46.070;14.492;2022-10-04T18:04:15;22.20;85.50
74153;DHT22;62505;46.070;14.492;2022-10-04T18:06:49;22.20;85.40
74153;DHT22;62505;46.070;14.492;2022-10-04T18:09:21;22.20;85.50
74153;DHT22;62505;46.070;14.492;2022-10-04T18:11:52;22.20;85.50
74153;DHT22;62505;46.070;14.492;2022-10-04T18:14:44;22.20;86.20
74153;DHT22;62505;46.070;14.492;2022-10-04T18:17:22;22.20;85.60
74153;DHT22;62505;46.070;14.492;2022-10-04T18:19:58;22.20;85.50
74153;DHT22;62505;46.070;14.492;2022-10-04T18:22:27;22.10;85.50
74153;DHT22;62505;46.070;14.492;2022-10-04T18:25:12;22.10;85.40